createdAt,value
2023-02-12T00:01:23.974Z,101557.16
2023-02-12T00:03:51.122Z,101543.97
2023-02-12T00:06:18.239Z,101551.16
2023-02-12T00:08:45.409Z,101559.41
2023-02-12T00:11:19.057Z,101565.72
2023-02-12T00:13:46.190Z,101567.56
2023-02-12T00:16:20.368Z,101579.28
2023-02-12T00:18:48.490Z,101585.13
2023-02-12T00:21:17.340Z,101596.63
2023-02-12T00:23:44.464Z,101595.72
2023-02-12T00:26:15.594Z,101608.94
2023-02-12T00:28:43.041Z,101608.47
2023-02-12T00:31:21.749Z,101607.69
2023-02-12T00:33:49.232Z,101599.38
2023-02-12T00:36:23.002Z,101595.09
2023-02-12T00:38:53.139Z,101602.22
2023-02-12T00:41:20.862Z,101600.63
2023-02-12T00:43:48.888Z,101613.16
2023-02-12T00:46:16.182Z,101604.69
2023-02-12T00:48:43.434Z,101598.50
2023-02-12T00:51:10.582Z,101621.84
2023-02-12T00:53:38.170Z,101622.38
2023-02-12T00:56:05.723Z,101626.94
2023-02-12T00:58:32.772Z,101636.59
2023-02-12T01:00:59.824Z,101634.78
2023-02-12T01:03:27.221Z,101637.91
2023-02-12T01:05:54.762Z,101655.28
2023-02-12T01:08:22.572Z,101655.16
2023-02-12T01:11:02.156Z,101657.25
2023-02-12T01:13:30.608Z,101661.97
2023-02-12T01:16:13.740Z,101662.59
2023-02-12T01:18:40.823Z,101661.78
2023-02-12T01:21:29.221Z,101662.06
2023-02-12T01:23:57.107Z,101679.06
2023-02-12T01:26:24.951Z,101688.06
2023-02-12T01:28:58.493Z,101683.50
2023-02-12T01:31:33.020Z,101689.63
2023-02-12T01:34:01.271Z,101689.91
2023-02-12T01:36:30.575Z,101689.75
2023-02-12T01:39:02.899Z,101701.53
2023-02-12T01:41:34.169Z,101696.56
2023-02-12T01:44:19.342Z,101694.34
2023-02-12T01:46:57.795Z,101701.81
2023-02-12T01:49:44.711Z,101702.19
2023-02-12T01:52:27.989Z,101693.31
2023-02-12T01:54:59.492Z,101721.53
2023-02-12T01:57:30.997Z,101714.84
2023-02-12T02:00:00.316Z,101718.63
2023-02-12T02:02:28.007Z,101735.34
2023-02-12T02:05:01.842Z,101722.16
2023-02-12T02:07:29.746Z,101728.69
2023-02-12T02:10:01.797Z,101730.53
2023-02-12T02:12:48.592Z,101731.44
2023-02-12T02:15:15.718Z,101746.19
2023-02-12T02:17:57.913Z,101751.66
2023-02-12T02:21:08.604Z,101757.81
2023-02-12T02:24:31.247Z,101750.75
2023-02-12T02:27:17.577Z,101766.16
2023-02-12T02:30:12.113Z,101781.84
2023-02-12T02:32:58.928Z,101789.00
2023-02-12T02:35:57.112Z,101786.66
2023-02-12T02:38:39.219Z,101785.88
2023-02-12T02:41:29.239Z,101815.66
2023-02-12T02:43:56.590Z,101806.38
2023-02-12T02:46:58.723Z,101802.50
2023-02-12T02:49:41.340Z,101812.13
2023-02-12T02:52:14.795Z,101812.94
2023-02-12T02:55:01.290Z,101824.03
2023-02-12T02:57:57.523Z,101834.31
2023-02-12T03:00:48.900Z,101840.09
2023-02-12T03:03:46.822Z,101854.56
2023-02-12T03:06:28.085Z,101855.84
2023-02-12T03:09:05.371Z,101866.19
2023-02-12T03:11:34.462Z,101868.81
2023-02-12T03:14:26.871Z,101867.34
2023-02-12T03:17:10.578Z,101881.19
2023-02-12T03:19:57.299Z,101888.75
2023-02-12T03:22:35.662Z,101887.72
2023-02-12T03:25:15.120Z,101891.09
2023-02-12T03:28:22.593Z,101891.50
2023-02-12T03:31:33.483Z,101892.69
2023-02-12T03:34:27.774Z,101897.13
2023-02-12T03:37:00.786Z,101898.66
2023-02-12T03:39:41.096Z,101907.75
2023-02-12T03:42:16.204Z,101915.78
2023-02-12T03:45:10.969Z,101924.41
2023-02-12T03:47:51.577Z,101939.78
2023-02-12T03:50:36.854Z,101934.53
2023-02-12T03:53:05.167Z,101947.50
2023-02-12T03:55:36.783Z,101945.25
2023-02-12T03:58:07.546Z,101943.88
2023-02-12T04:00:34.664Z,101953.03
2023-02-12T04:03:02.000Z,101951.84
2023-02-12T04:05:29.107Z,101945.56
2023-02-12T04:07:58.741Z,101957.78
2023-02-12T04:10:47.220Z,101972.44
2023-02-12T04:13:38.690Z,101971.66
2023-02-12T04:17:05.551Z,101972.25
2023-02-12T04:19:52.652Z,101972.69
2023-02-12T04:22:36.763Z,101968.16
2023-02-12T04:25:22.807Z,101969.41
2023-02-12T04:28:27.634Z,101988.88
2023-02-12T04:31:07.781Z,101990.72
2023-02-12T04:33:57.469Z,101975.94
2023-02-12T04:36:32.156Z,101986.25
2023-02-12T04:39:11.151Z,101986.56
2023-02-12T04:41:39.718Z,101984.47
2023-02-12T04:44:26.093Z,101982.75
2023-02-12T04:46:53.666Z,101989.03
2023-02-12T04:49:22.881Z,101990.94
2023-02-12T04:51:50.647Z,101998.63
2023-02-12T04:54:20.001Z,102008.84
2023-02-12T04:56:47.937Z,102005.34
2023-02-12T04:59:15.772Z,102008.97
2023-02-12T05:01:44.317Z,102013.06
2023-02-12T05:04:15.215Z,102020.78
2023-02-12T05:06:43.817Z,102028.66
2023-02-12T05:09:17.096Z,102029.66
2023-02-12T05:11:44.593Z,102036.50
2023-02-12T05:14:12.377Z,102046.69
2023-02-12T05:16:39.404Z,102046.09
2023-02-12T05:19:09.506Z,102062.16
2023-02-12T05:21:38.367Z,102061.19
2023-02-12T05:24:06.467Z,102074.75
2023-02-12T05:26:33.988Z,102064.06
2023-02-12T05:29:01.301Z,102054.28
2023-02-12T05:31:28.587Z,102065.50
2023-02-12T05:33:55.635Z,102069.16
2023-02-12T05:36:25.055Z,102075.38
2023-02-12T05:38:53.834Z,102077.00
2023-02-12T05:41:24.532Z,102080.22
2023-02-12T05:43:52.570Z,102086.25
2023-02-12T05:46:21.520Z,102085.66
2023-02-12T05:48:48.710Z,102092.72
2023-02-12T05:51:23.281Z,102092.50
2023-02-12T05:53:53.739Z,102094.13
2023-02-12T05:56:24.904Z,102106.44
2023-02-12T05:58:59.592Z,102116.63
2023-02-12T06:01:30.697Z,102115.97
2023-02-12T06:04:03.994Z,102117.72
2023-02-12T06:06:32.651Z,102132.31
2023-02-12T06:09:00.040Z,102137.88
2023-02-12T06:11:28.040Z,102140.44
2023-02-12T06:13:55.115Z,102139.25
2023-02-12T06:16:24.798Z,102154.47
2023-02-12T06:18:53.768Z,102156.00
2023-02-12T06:21:23.553Z,102147.94
2023-02-12T06:23:52.243Z,102160.91
2023-02-12T06:26:20.191Z,102166.75
2023-02-12T06:28:48.081Z,102150.91
2023-02-12T06:31:30.408Z,102166.06
2023-02-12T06:34:02.635Z,102164.78
2023-02-12T06:36:29.848Z,102164.78
2023-02-12T06:38:57.383Z,102167.31
2023-02-12T06:41:24.947Z,102177.06
2023-02-12T06:43:52.090Z,102171.84
2023-02-12T06:46:19.978Z,102171.38
2023-02-12T06:48:47.085Z,102171.25
2023-02-12T06:51:18.052Z,102180.91
2023-02-12T06:53:45.354Z,102176.00
2023-02-12T06:56:14.030Z,102176.00
2023-02-12T06:58:45.134Z,102184.91
2023-02-12T07:01:25.329Z,102186.88
2023-02-12T07:04:02.473Z,102178.06
2023-02-12T07:06:31.886Z,102179.75
2023-02-12T07:08:59.217Z,102174.47
2023-02-12T07:11:29.299Z,102163.47
2023-02-12T07:13:56.724Z,102172.31
2023-02-12T07:16:24.018Z,102169.47
2023-02-12T07:18:51.274Z,102182.75
2023-02-12T07:21:19.795Z,102173.41
2023-02-12T07:23:51.284Z,102162.06
2023-02-12T07:26:21.009Z,102170.16
2023-02-12T07:28:49.439Z,102177.13
2023-02-12T07:31:22.996Z,102174.69
2023-02-12T07:33:55.440Z,102163.78
2023-02-12T07:36:23.488Z,102151.16
2023-02-12T07:38:51.127Z,102145.88
2023-02-12T07:41:22.454Z,102163.31
2023-02-12T07:43:58.933Z,102167.78
2023-02-12T07:46:31.379Z,102174.75
2023-02-12T07:49:00.821Z,102174.34
2023-02-12T07:51:29.041Z,102177.63
2023-02-12T07:53:56.523Z,102179.78
2023-02-12T07:56:32.417Z,102187.06
2023-02-12T07:59:07.240Z,102186.53
2023-02-12T08:01:45.426Z,102177.69
2023-02-12T08:04:15.596Z,102185.66
2023-02-12T08:06:48.669Z,102197.97
2023-02-12T08:09:19.774Z,102200.91
2023-02-12T08:11:47.522Z,102200.19
2023-02-12T08:14:18.819Z,102201.97
2023-02-12T08:16:47.652Z,102210.47
2023-02-12T08:19:20.465Z,102208.94
2023-02-12T08:21:53.577Z,102217.97
2023-02-12T08:24:22.291Z,102216.94
2023-02-12T08:26:49.770Z,102224.28
2023-02-12T08:29:20.659Z,102223.09
2023-02-12T08:31:50.198Z,102227.19
2023-02-12T08:34:25.894Z,102220.88
2023-02-12T08:36:54.711Z,102221.72
2023-02-12T08:39:23.637Z,102218.75
2023-02-12T08:41:51.266Z,102214.25
2023-02-12T08:44:18.340Z,102211.34
2023-02-12T08:46:50.274Z,102208.56
2023-02-12T08:49:24.729Z,102207.13
2023-02-12T08:51:55.158Z,102202.44
2023-02-12T08:54:25.705Z,102193.34
2023-02-12T08:56:58.952Z,102200.09
2023-02-12T08:59:26.785Z,102217.06
2023-02-12T09:01:55.064Z,102223.59
2023-02-12T09:04:26.416Z,102221.56
2023-02-12T09:06:54.042Z,102227.06
2023-02-12T09:09:21.988Z,102222.16
2023-02-12T09:11:49.529Z,102218.94
2023-02-12T09:14:18.806Z,102227.41
2023-02-12T09:16:46.084Z,102217.22
2023-02-12T09:19:15.319Z,102226.94
2023-02-12T09:21:42.846Z,102226.63
2023-02-12T09:24:10.989Z,102231.59
2023-02-12T09:26:39.505Z,102230.22
2023-02-12T09:29:06.626Z,102237.38
2023-02-12T09:31:34.210Z,102242.81
2023-02-12T09:34:07.034Z,102242.09
2023-02-12T09:36:34.401Z,102245.56
2023-02-12T09:39:01.792Z,102251.41
2023-02-12T09:42:15.435Z,102251.47
2023-02-12T09:45:19.920Z,102252.56
2023-02-12T09:48:16.281Z,102250.63
2023-02-12T09:50:52.704Z,102252.44
2023-02-12T09:53:31.869Z,102258.00
2023-02-12T09:55:59.425Z,102254.25
2023-02-12T09:58:53.109Z,102248.94
2023-02-12T10:01:22.228Z,102251.88
2023-02-12T10:03:52.261Z,102251.97
2023-02-12T10:06:41.668Z,102241.19
2023-02-12T10:09:23.465Z,102247.41
2023-02-12T10:12:26.620Z,102247.47
2023-02-12T10:15:44.083Z,102250.13
2023-02-12T10:18:58.084Z,102257.41
2023-02-12T10:21:31.096Z,102254.75
2023-02-12T10:24:56.980Z,102251.00
2023-02-12T10:27:50.086Z,102258.91
2023-02-12T10:30:45.664Z,102263.97
2023-02-12T10:33:24.869Z,102262.25
2023-02-12T10:36:01.053Z,102244.97
2023-02-12T10:38:35.366Z,102241.44
2023-02-12T10:41:02.875Z,102247.75
2023-02-12T10:43:30.671Z,102242.31
2023-02-12T10:45:58.566Z,102244.00
2023-02-12T10:48:38.040Z,102243.88
2023-02-12T10:51:07.998Z,102243.56
2023-02-12T10:53:40.801Z,102249.69
2023-02-12T10:56:12.990Z,102254.69
2023-02-12T10:59:03.357Z,102258.25
2023-02-12T11:01:38.687Z,102259.31
2023-02-12T11:04:29.526Z,102256.66
2023-02-12T11:07:12.000Z,102245.53
2023-02-12T11:09:52.201Z,102249.75
2023-02-12T11:12:48.065Z,102249.47
2023-02-12T11:15:26.021Z,102252.78
2023-02-12T11:18:26.271Z,102245.09
2023-02-12T11:21:12.364Z,102252.63
2023-02-12T11:23:42.961Z,102256.88
2023-02-12T11:26:18.437Z,102261.75
2023-02-12T11:29:17.289Z,102258.88
2023-02-12T11:32:10.174Z,102244.59
2023-02-12T11:34:37.576Z,102248.78
2023-02-12T11:37:12.259Z,102229.06
2023-02-12T11:39:40.611Z,102234.31
2023-02-12T11:42:25.840Z,102230.13
2023-02-12T11:44:58.292Z,102239.38
2023-02-12T11:47:33.821Z,102224.16
2023-02-12T11:50:30.289Z,102217.19
2023-02-12T11:53:04.036Z,102216.09
2023-02-12T11:55:39.534Z,102216.97
2023-02-12T11:58:25.059Z,102230.41
2023-02-12T12:01:21.044Z,102226.63
2023-02-12T12:04:18.505Z,102222.66
2023-02-12T12:07:15.559Z,102227.22
2023-02-12T12:10:08.329Z,102223.19
2023-02-12T12:12:59.760Z,102230.13
2023-02-12T12:15:59.079Z,102224.03
2023-02-12T12:19:01.922Z,102203.59
2023-02-12T12:21:45.897Z,102211.44
2023-02-12T12:24:39.990Z,102202.56
2023-02-12T12:28:03.349Z,102202.19
2023-02-12T12:31:42.816Z,102209.63
2023-02-12T12:34:23.704Z,102206.47
2023-02-12T12:37:19.410Z,102200.84
2023-02-12T12:40:28.380Z,102205.81
2023-02-12T12:43:26.598Z,102212.84
2023-02-12T12:46:25.226Z,102188.59
2023-02-12T12:49:07.100Z,102206.25
2023-02-12T12:52:03.500Z,102195.28
2023-02-12T12:54:52.168Z,102197.84
2023-02-12T12:57:46.658Z,102191.34
2023-02-12T13:00:33.144Z,102192.72
2023-02-12T13:03:53.068Z,102185.63
2023-02-12T13:06:55.491Z,102188.78
2023-02-12T13:09:59.917Z,102183.81
2023-02-12T13:12:49.516Z,102194.97
2023-02-12T13:15:30.183Z,102184.06
2023-02-12T13:18:20.652Z,102191.72
2023-02-12T13:21:16.692Z,102195.41
2023-02-12T13:24:05.485Z,102193.09
2023-02-12T13:26:58.938Z,102186.16
2023-02-12T13:29:41.942Z,102187.59
2023-02-12T13:32:17.968Z,102181.38
2023-02-12T13:34:45.240Z,102194.69
2023-02-12T13:37:25.133Z,102201.56
2023-02-12T13:39:53.239Z,102208.06
2023-02-12T13:43:04.468Z,102189.59
2023-02-12T13:46:07.186Z,102197.03
2023-02-12T13:49:07.334Z,102190.13
2023-02-12T13:51:50.483Z,102182.47
2023-02-12T13:54:37.436Z,102191.88
2023-02-12T13:57:15.019Z,102190.97
2023-02-12T13:59:45.904Z,102197.06
2023-02-12T14:02:12.926Z,102207.09
2023-02-12T14:04:47.704Z,102196.56
2023-02-12T14:07:16.419Z,102195.09
2023-02-12T14:09:52.676Z,102194.88
2023-02-12T14:12:25.588Z,102194.38
2023-02-12T14:15:34.721Z,102198.56
2023-02-12T14:18:36.204Z,102207.22
2023-02-12T14:21:12.269Z,102202.81
2023-02-12T14:23:46.786Z,102192.88
2023-02-12T14:26:19.419Z,102191.34
2023-02-12T14:28:59.339Z,102191.72
2023-02-12T14:31:34.055Z,102192.72
2023-02-12T14:34:07.661Z,102185.22
2023-02-12T14:36:40.745Z,102194.38
2023-02-12T14:39:22.532Z,102188.06
2023-02-12T14:41:55.416Z,102188.78
2023-02-12T14:44:26.851Z,102191.66
2023-02-12T14:46:56.382Z,102193.22
2023-02-12T14:49:34.194Z,102191.31
2023-02-12T14:52:33.922Z,102201.44
2023-02-12T14:55:17.405Z,102198.47
2023-02-12T14:57:45.126Z,102190.94
2023-02-12T15:00:18.027Z,102194.88
2023-02-12T15:02:59.674Z,102196.69
2023-02-12T15:05:48.104Z,102197.78
2023-02-12T15:08:48.788Z,102196.13
2023-02-12T15:11:39.387Z,102198.28
2023-02-12T15:14:15.448Z,102199.38
2023-02-12T15:17:05.153Z,102205.59
2023-02-12T15:20:21.543Z,102209.81
2023-02-12T15:22:48.655Z,102206.97
2023-02-12T15:25:29.496Z,102216.91
2023-02-12T15:28:11.868Z,102208.25
2023-02-12T15:30:43.084Z,102215.44
2023-02-12T15:33:24.788Z,102215.09
2023-02-12T15:35:53.088Z,102214.88
2023-02-12T15:38:37.315Z,102214.53
2023-02-12T15:41:06.620Z,102217.97
2023-02-12T15:43:40.195Z,102221.28
2023-02-12T15:46:16.826Z,102234.09
2023-02-12T15:48:45.091Z,102229.72
2023-02-12T15:51:39.108Z,102224.56
2023-02-12T15:54:07.813Z,102214.97
2023-02-12T15:56:36.354Z,102213.00
2023-02-12T15:59:04.127Z,102213.56
2023-02-12T16:01:35.560Z,102214.00
2023-02-12T16:04:08.460Z,102211.22
2023-02-12T16:06:39.607Z,102213.53
2023-02-12T16:09:27.445Z,102214.97
2023-02-12T16:11:55.668Z,102208.56
2023-02-12T16:14:46.558Z,102205.47
2023-02-12T16:17:46.803Z,102203.53
2023-02-12T16:20:18.971Z,102206.69
2023-02-12T16:22:50.692Z,102204.28
2023-02-12T16:25:33.656Z,102204.97
2023-02-12T16:28:30.226Z,102208.66
2023-02-12T16:31:14.711Z,102186.75
2023-02-12T16:33:48.782Z,102204.97
2023-02-12T16:36:24.356Z,102204.09
2023-02-12T16:39:08.510Z,102196.91
2023-02-12T16:41:55.220Z,102192.38
2023-02-12T16:44:26.889Z,102192.28
2023-02-12T16:46:58.517Z,102195.00
2023-02-12T16:49:27.020Z,102188.53
2023-02-12T16:52:15.101Z,102197.06
2023-02-12T16:54:42.117Z,102191.81
2023-02-12T16:57:11.752Z,102191.75
2023-02-12T16:59:43.382Z,102189.53
2023-02-12T17:02:15.676Z,102192.44
2023-02-12T17:04:42.951Z,102194.69
2023-02-12T17:07:27.497Z,102188.69
2023-02-12T17:09:54.906Z,102190.66
2023-02-12T17:12:21.968Z,102185.81
2023-02-12T17:14:49.001Z,102194.47
2023-02-12T17:17:16.285Z,102196.00
2023-02-12T17:19:43.468Z,102206.28
2023-02-12T17:22:36.750Z,102201.00
2023-02-12T17:25:04.040Z,102208.25
2023-02-12T17:27:31.082Z,102201.19
2023-02-12T17:29:58.057Z,102203.66
2023-02-12T17:32:25.489Z,102206.53
2023-02-12T17:34:52.575Z,102221.63
2023-02-12T17:37:22.232Z,102210.50
2023-02-12T17:39:49.224Z,102227.44
2023-02-12T17:42:16.913Z,102233.34
2023-02-12T17:44:44.186Z,102246.84
2023-02-12T17:47:11.191Z,102246.31
2023-02-12T17:49:39.916Z,102241.59
2023-02-12T17:52:07.551Z,102242.53
2023-02-12T17:54:34.912Z,102237.81
2023-02-12T17:57:01.983Z,102235.59
2023-02-12T17:59:29.298Z,102222.88
2023-02-12T18:01:56.595Z,102217.63
2023-02-12T18:04:23.710Z,102214.22
2023-02-12T18:06:50.696Z,102208.09
2023-02-12T18:09:17.699Z,102218.03
2023-02-12T18:11:44.806Z,102213.44
2023-02-12T18:14:12.237Z,102217.22
2023-02-12T18:16:39.246Z,102213.66
2023-02-12T18:19:06.291Z,102220.47
2023-02-12T18:21:35.082Z,102206.88
2023-02-12T18:24:03.170Z,102205.13
2023-02-12T18:26:30.258Z,102198.44
2023-02-12T18:29:01.216Z,102204.50
2023-02-12T18:31:29.147Z,102198.97
2023-02-12T18:33:56.433Z,102194.41
2023-02-12T18:36:23.570Z,102192.31
2023-02-12T18:38:52.011Z,102193.47
2023-02-12T18:41:24.396Z,102196.78
2023-02-12T18:43:51.913Z,102190.72
2023-02-12T18:46:23.600Z,102186.66
2023-02-12T18:48:51.128Z,102185.75
2023-02-12T18:51:22.670Z,102182.06
2023-02-12T18:54:02.488Z,102175.13
2023-02-12T18:56:32.983Z,102173.22
2023-02-12T18:59:02.840Z,102181.34
2023-02-12T19:01:29.897Z,102172.78
2023-02-12T19:04:00.301Z,102178.00
2023-02-12T19:06:29.642Z,102177.19
2023-02-12T19:08:58.642Z,102177.97
2023-02-12T19:11:27.023Z,102178.06
2023-02-12T19:13:54.592Z,102166.84
2023-02-12T19:16:23.955Z,102168.28
2023-02-12T19:18:54.855Z,102158.31
2023-02-12T19:21:26.164Z,102171.66
2023-02-12T19:23:59.639Z,102168.66
2023-02-12T19:26:29.805Z,102163.81
2023-02-12T19:28:57.988Z,102151.63
2023-02-12T19:31:30.438Z,102157.69
2023-02-12T19:34:06.551Z,102150.19
2023-02-12T19:36:36.424Z,102145.47
2023-02-12T19:39:05.911Z,102130.44
2023-02-12T19:41:33.162Z,102135.91
2023-02-12T19:44:01.746Z,102129.38
2023-02-12T19:46:31.154Z,102141.97
2023-02-12T19:49:02.557Z,102134.88
2023-02-12T19:51:30.894Z,102135.78
2023-02-12T19:54:04.368Z,102128.84
2023-02-12T19:56:31.650Z,102121.41
2023-02-12T19:58:59.147Z,102138.53
2023-02-12T20:01:26.786Z,102136.34
2023-02-12T20:03:54.503Z,102131.59
2023-02-12T20:06:34.676Z,102122.31
2023-02-12T20:09:02.510Z,102120.09
2023-02-12T20:11:34.393Z,102121.81
2023-02-12T20:14:02.404Z,102115.78
2023-02-12T20:16:37.525Z,102122.59
2023-02-12T20:19:25.342Z,102119.47
2023-02-12T20:21:56.740Z,102105.31
2023-02-12T20:24:27.353Z,102114.31
2023-02-12T20:26:55.155Z,102120.13
2023-02-12T20:29:22.996Z,102107.03
2023-02-12T20:31:50.567Z,102104.41
2023-02-12T20:34:20.031Z,102108.44
2023-02-12T20:36:47.894Z,102105.34
2023-02-12T20:39:18.727Z,102098.34
2023-02-12T20:41:45.860Z,102091.69
2023-02-12T20:44:17.412Z,102097.06
2023-02-12T20:46:47.117Z,102097.59
2023-02-12T20:49:17.062Z,102099.97
2023-02-12T20:51:45.805Z,102090.28
2023-02-12T20:54:13.551Z,102097.34
2023-02-12T20:56:40.823Z,102101.41
2023-02-12T20:59:08.407Z,102093.31
2023-02-12T21:01:39.207Z,102106.53
2023-02-12T21:04:16.901Z,102088.19
2023-02-12T21:06:45.644Z,102097.75
2023-02-12T21:09:14.721Z,102097.22
2023-02-12T21:11:45.755Z,102093.66
2023-02-12T21:14:23.435Z,102091.56
2023-02-12T21:16:54.003Z,102090.66
2023-02-12T21:19:21.997Z,102084.03
2023-02-12T21:21:49.368Z,102071.47
2023-02-12T21:24:21.605Z,102086.16
2023-02-12T21:26:49.399Z,102086.59
2023-02-12T21:29:16.543Z,102085.66
2023-02-12T21:31:47.027Z,102084.75
2023-02-12T21:34:19.418Z,102084.50
2023-02-12T21:36:48.557Z,102087.06
2023-02-12T21:39:28.712Z,102087.09
2023-02-12T21:42:03.163Z,102095.22
2023-02-12T21:44:35.321Z,102083.06
2023-02-12T21:47:03.392Z,102085.41
2023-02-12T21:49:30.446Z,102084.06
2023-02-12T21:52:02.223Z,102077.78
2023-02-12T21:54:30.567Z,102083.03
2023-02-12T21:56:58.559Z,102056.19
2023-02-12T21:59:26.646Z,102062.69
2023-02-12T22:01:56.373Z,102063.00
2023-02-12T22:04:23.533Z,102064.94
2023-02-12T22:06:52.843Z,102064.75
2023-02-12T22:09:22.830Z,102069.09
2023-02-12T22:11:52.243Z,102069.78
2023-02-12T22:14:21.079Z,102075.94
2023-02-12T22:16:48.268Z,102065.06
2023-02-12T22:19:15.782Z,102074.38
2023-02-12T22:21:44.444Z,102054.19
2023-02-12T22:24:15.550Z,102062.06
2023-02-12T22:26:44.310Z,102060.59
2023-02-12T22:29:14.673Z,102062.44
2023-02-12T22:31:44.355Z,102055.63
2023-02-12T22:34:17.248Z,102055.38
2023-02-12T22:36:45.323Z,102051.78
2023-02-12T22:39:13.999Z,102061.50
2023-02-12T22:41:42.447Z,102052.16
2023-02-12T22:44:12.441Z,102050.28
2023-02-12T22:46:40.035Z,102046.41
2023-02-12T22:49:07.056Z,102044.84
2023-02-12T22:51:35.976Z,102037.38
2023-02-12T22:54:03.922Z,102046.00
2023-02-12T22:56:31.013Z,102030.03
2023-02-12T22:59:01.132Z,102023.75
2023-02-12T23:01:29.720Z,102027.63
2023-02-12T23:03:57.198Z,102025.16
2023-02-12T23:06:29.991Z,102009.97
2023-02-12T23:09:02.048Z,102011.50
2023-02-12T23:11:31.659Z,102017.25
2023-02-12T23:13:59.402Z,102006.63
2023-02-12T23:16:26.665Z,102001.44
2023-02-12T23:18:59.550Z,102009.66
2023-02-12T23:21:28.931Z,102002.72
2023-02-12T23:23:56.795Z,102001.19
2023-02-12T23:26:23.820Z,101985.91
2023-02-12T23:28:50.938Z,101978.06
2023-02-12T23:31:18.160Z,101984.69
2023-02-12T23:33:45.287Z,101978.97
2023-02-12T23:36:12.313Z,101980.59
2023-02-12T23:38:39.307Z,101978.81
2023-02-12T23:41:06.490Z,101981.91
2023-02-12T23:43:33.566Z,101969.53
2023-02-12T23:46:00.900Z,101960.63
2023-02-12T23:48:28.039Z,101960.16
2023-02-12T23:50:55.553Z,101955.38
2023-02-12T23:53:22.864Z,101962.81
2023-02-12T23:55:51.360Z,101953.75
2023-02-12T23:58:18.450Z,101945.31
